Sky Ever — DSQX9 — position and weather

sailwx.info

Track history (hours):
 
Tides and Currents Weather Stations Pressure Air Temp Water Temp Dewpoint Dewpoint Depression Visibility Wind Speed Wind Dir Waves Ship Positions

Sky Ever

Last reported at 2017-Apr-23 02:59 UTC. Time now 2017-Apr-30 06:56 UTC.
Position N 34°36' E 134°54'.

Length 76 m; draft 5.3 m.

Type: Cargo ship. MMSI: 441751000.

Date/timePositionNaut miles runAvg speedWind from/ knotsBaromVisibWave heightAir tempDewpointWater temp
2017-Apr-23 02:59N 34°36' E 134°54'3 6.3
2017-Apr-23 02:27N 34°37' E 134°58'4 5.5
2017-Apr-23 01:46N 34°37' E 135°03'2 6.7
2017-Apr-23 01:30N 34°36' E 135°04'4 7.1
2017-Apr-23 01:00N 34°32' E 135°05'4 8.3
2017-Apr-23 00:30N 34°28' E 135°03'5 8.4
2017-Apr-22 23:57N 34°24' E 135°02'9 8.4
2017-Apr-22 22:50N 34°15' E 134°59'3 8.4
2017-Apr-22 22:30N 34°12' E 134°59'8 8.4
2017-Apr-22 21:37N 34°04' E 135°01'227 7.1
2017-Apr-21 13:33N 35°00' E 139°27'1 7.8
2017-Apr-21 13:24N 35°01' E 139°28'3 7.9
2017-Apr-21 13:00N 35°02' E 139°32'4 8.2
2017-Apr-21 12:30N 35°04' E 139°36'4 8.5
2017-Apr-21 12:00N 35°07' E 139°41'4 8.5
2017-Apr-21 11:30N 35°10' E 139°44'4 8.5
2017-Apr-21 11:00N 35°14' E 139°46'4 8.7
2017-Apr-21 10:30N 35°18' E 139°44'4 8.4
2017-Apr-21 10:00N 35°22' E 139°42'5 8.0
2017-Apr-21 09:26N 35°26' E 139°45'4 8.8
2017-Apr-21 09:00N 35°28' E 139°48'4 8.5
2017-Apr-21 08:30N 35°31' E 139°52'4 8.3
2017-Apr-21 08:00N 35°34' E 139°56'6 7.8
2017-Apr-21 07:12N 35°40' E 139°59'1 0.0
2017-Apr-20 08:49N 35°40' E 139°59'3 8.8
2017-Apr-20 08:29N 35°37' E 139°59'1 0.0
2017-Apr-19 05:37N 35°36' E 139°58'0 0.0
2017-Apr-19 05:30N 35°36' E 139°58'0 0.0
2017-Apr-19 03:34N 35°36' E 139°58'0 0.0
2017-Apr-19 01:01N 35°36' E 139°58'0 0.6
2017-Apr-19 00:56N 35°36' E 139°58'0 0.0
2017-Apr-19 00:30N 35°36' E 139°58'0 0.0
2017-Apr-18 23:59N 35°36' E 139°58'0 0.0
2017-Apr-17 11:47N 35°36' E 139°58'0 0.0
2017-Apr-17 11:28N 35°36' E 139°58'0 0.3
2017-Apr-17 10:49N 35°36' E 139°58'3 8.2
2017-Apr-17 10:30N 35°34' E 139°56'5 9.2
2017-Apr-17 09:59N 35°30' E 139°53'5 9.3
2017-Apr-17 09:30N 35°27' E 139°49'5 9.3
2017-Apr-17 09:00N 35°23' E 139°46'5 9.0
2017-Apr-17 08:29N 35°18' E 139°44'5 9.0
2017-Apr-17 07:57N 35°14' E 139°47'4 9.2
2017-Apr-17 07:30N 35°10' E 139°47'4 8.9
2017-Apr-17 07:00N 35°06' E 139°44'5 9.0
2017-Apr-17 06:30N 35°02' E 139°41'4 8.7
2017-Apr-17 06:00N 34°60' E 139°37'5 9.2
2017-Apr-17 05:30N 34°57' E 139°33'42 9.6
2017-Apr-17 01:09N 34°35' E 138°50'2 9.2
2017-Apr-17 00:59N 34°34' E 138°48'  
Track history (hours):
 
Tides and Currents Weather Stations Pressure Air Temp Water Temp Dewpoint Dewpoint Depression Visibility Wind Speed Wind Dir Waves Ship Positions

Sky Ever

Last reported at 2017-Apr-23 02:59 UTC. Time now 2017-Apr-30 06:56 UTC.
Position N 34°36' E 134°54'.

Length 76 m; draft 5.3 m.

Type: Cargo ship. MMSI: 441751000.

Date/timePositionNaut miles runAvg speedWind from/ knotsBaromVisibWave heightAir tempDewpointWater temp
2017-Apr-23 02:59N 34°36' E 134°54'3 6.3
2017-Apr-23 02:27N 34°37' E 134°58'4 5.5
2017-Apr-23 01:46N 34°37' E 135°03'2 6.7
2017-Apr-23 01:30N 34°36' E 135°04'4 7.1
2017-Apr-23 01:00N 34°32' E 135°05'4 8.3
2017-Apr-23 00:30N 34°28' E 135°03'5 8.4
2017-Apr-22 23:57N 34°24' E 135°02'9 8.4
2017-Apr-22 22:50N 34°15' E 134°59'3 8.4
2017-Apr-22 22:30N 34°12' E 134°59'8 8.4
2017-Apr-22 21:37N 34°04' E 135°01'227 7.1
2017-Apr-21 13:33N 35°00' E 139°27'1 7.8
2017-Apr-21 13:24N 35°01' E 139°28'3 7.9
2017-Apr-21 13:00N 35°02' E 139°32'4 8.2
2017-Apr-21 12:30N 35°04' E 139°36'4 8.5
2017-Apr-21 12:00N 35°07' E 139°41'4 8.5
2017-Apr-21 11:30N 35°10' E 139°44'4 8.5
2017-Apr-21 11:00N 35°14' E 139°46'4 8.7
2017-Apr-21 10:30N 35°18' E 139°44'4 8.4
2017-Apr-21 10:00N 35°22' E 139°42'5 8.0
2017-Apr-21 09:26N 35°26' E 139°45'4 8.8
2017-Apr-21 09:00N 35°28' E 139°48'4 8.5
2017-Apr-21 08:30N 35°31' E 139°52'4 8.3
2017-Apr-21 08:00N 35°34' E 139°56'6 7.8
2017-Apr-21 07:12N 35°40' E 139°59'1 0.0
2017-Apr-20 08:49N 35°40' E 139°59'3 8.8
2017-Apr-20 08:29N 35°37' E 139°59'1 0.0
2017-Apr-19 05:37N 35°36' E 139°58'0 0.0
2017-Apr-19 05:30N 35°36' E 139°58'0 0.0
2017-Apr-19 03:34N 35°36' E 139°58'0 0.0
2017-Apr-19 01:01N 35°36' E 139°58'0 0.6
2017-Apr-19 00:56N 35°36' E 139°58'0 0.0
2017-Apr-19 00:30N 35°36' E 139°58'0 0.0
2017-Apr-18 23:59N 35°36' E 139°58'0 0.0
2017-Apr-17 11:47N 35°36' E 139°58'0 0.0
2017-Apr-17 11:28N 35°36' E 139°58'0 0.3
2017-Apr-17 10:49N 35°36' E 139°58'3 8.2
2017-Apr-17 10:30N 35°34' E 139°56'5 9.2
2017-Apr-17 09:59N 35°30' E 139°53'5 9.3
2017-Apr-17 09:30N 35°27' E 139°49'5 9.3
2017-Apr-17 09:00N 35°23' E 139°46'5 9.0
2017-Apr-17 08:29N 35°18' E 139°44'5 9.0
2017-Apr-17 07:57N 35°14' E 139°47'4 9.2
2017-Apr-17 07:30N 35°10' E 139°47'4 8.9
2017-Apr-17 07:00N 35°06' E 139°44'5 9.0
2017-Apr-17 06:30N 35°02' E 139°41'4 8.7
2017-Apr-17 06:00N 34°60' E 139°37'5 9.2
2017-Apr-17 05:30N 34°57' E 139°33'42 9.6
2017-Apr-17 01:09N 34°35' E 138°50'2 9.2
2017-Apr-17 00:59N 34°34' E 138°48'  

Dump ship's entire track history